Terminal Aerodrome Forecast
Issued by NWS

Home | Current Version | Previous Version | Text Only | Print | Product List | Glossary On
Versions: 1 2 3 4 5 6 7 8 9 10 11 12 13 14 15 16 17 18 19 20
000
FTUS41 KGYX 310520
TAFRKD
TAF
KRKD 310520Z 3106/0106 VRB03KT P6SM BKN050
     FM311300 04005KT P6SM SCT100 SCT200
     FM311800 07006KT P6SM OVC050
      AMD LTD TO CLD VIS AND WIND=

USA.gov is the U.S. government's official web portal to all federal, state and local government web resources and services.